OIMJ

Shahroud Airport

Airport
ICAO code
OIMJ
IATA Code
RUD
Summary
ICAO Region
MID
ICAO Territory
Location

Shahroud, Semnan Province

Serving
Shahroud
Elevation
4197 ft
Coordinates
36° 25' 28" N , 55° 6' 11" E
KCC
Metar
Observation
OIMJ 041300Z 35019KT 9999 FEW035 05/M06 Q1022
Station
Shahrud Airport
Date/Time
2022-12-04 13:00:00
Wind direction
350°
Wind speed
19 kts
Lowest cloud amount
few clouds
Temperature
5°C
Dew point
-6°C
Humidity
44%
QNH
1022 hPa
Weather condition
n/a

Airport 10km east of Shahroud, Iran.

Climatology

Cold Desert climate (Köppen climate classification BSk).

Runways

Designator Length Width Surface Rops
7/25 2791 45 ASP No/No

Airport map

Aerial View

SKYbrary Partners:

Safety knowledge contributed by: